Boone County Airport
KHRO : now visible

Airfield :











YOU CAN JOIN US ON...

 
LOGIN :

Register | Disclaimer

   EN    FR    IT 

 









Legend :    VFR   Marginal VFR   IFR   Intensive IFR   Very Intensive IFR
Visi :
Ceiling :
>= 8 km
>= 3000ft
5 to 8 km
1000 to 3000 ft
1500m to 5 km
500 to 1000 ft
800 to 1500m
200 to 500 ft
< 800m
< 200 ft
Symbols :   Thunderstorms  Fog  Heavy snow  Heavy precipitations  Wind > 20 kt







- Airport Elevation : 1365 ft
- IATA code : HRO


KHRO - Boone County

CURRENT METAR :
  • 201553Z AUTO 33009G15KT 10SM CLR 16/00 A3003 RMK AO2 SLP167 T01610000 TSNO

EXPIRED METARs :
  • 201453Z AUTO 30008KT 10SM CLR 14/01 A3002 RMK AO2 SLP162 T01440006 53017 TSNO
  • 201353Z AUTO 29006KT 10SM CLR 12/01 A3000 RMK AO2 SLP155 T01220006 TSNO

TAF KHRO
Valid from the 20 at 12:00 until the 21 at 12:00 UTC


201120Z 2012/2112 32008KT P6SM SKC
FM201500 31010G18KT P6SM FEW250
FM210000 VRB06KT P6SM SKC
KZME FIR / North America



MET'MAP, your aeronautical weather chart ! - Copyright ORBIFLY December 2007 - Disclaimer

ORBIFLY MET'MAP TEAM :

Programming & Development : Alexandra Zaïnal
Concept & Development : Baudouin d'Aumeries
Co-Development & Prog : Marc-Olivier Méhu
Technical & hardware support : Manuel Goepfert

Contact : metmap@orbifly.com




SOURCES & CREDITS :

   NOAA       Earth
Advisory